createdAt,value
2016-12-22T00:00:45.266Z,1017.95
2016-12-22T00:01:45.248Z,1017.95
2016-12-22T00:02:45.227Z,1017.94
2016-12-22T00:03:45.207Z,1017.91
2016-12-22T00:04:45.188Z,1017.91
2016-12-22T00:05:45.167Z,1017.94
2016-12-22T00:06:45.148Z,1017.95
2016-12-22T00:07:45.127Z,1017.92
2016-12-22T00:08:45.107Z,1017.95
2016-12-22T00:09:45.089Z,1017.96
2016-12-22T00:10:45.071Z,1017.96
2016-12-22T00:11:45.048Z,1017.95
2016-12-22T00:12:45.027Z,1017.92
2016-12-22T00:13:45.009Z,1017.91
2016-12-22T00:14:44.988Z,1017.96
2016-12-22T00:15:44.968Z,1017.9
2016-12-22T00:16:44.947Z,1017.86
2016-12-22T00:17:44.928Z,1017.89
2016-12-22T00:18:44.909Z,1017.91
2016-12-22T00:19:44.887Z,1017.88
2016-12-22T00:20:44.869Z,1017.89
2016-12-22T00:21:44.847Z,1017.89
2016-12-22T00:22:44.827Z,1017.87
2016-12-22T00:23:44.808Z,1017.84
2016-12-22T00:24:44.788Z,1017.83
2016-12-22T00:25:44.767Z,1017.86
2016-12-22T00:26:44.747Z,1017.84
2016-12-22T00:27:44.727Z,1017.85
2016-12-22T00:28:44.910Z,1017.85
2016-12-22T00:29:44.687Z,1017.83
2016-12-22T00:30:44.672Z,1017.84
2016-12-22T00:31:44.649Z,1017.8
2016-12-22T00:32:44.628Z,1017.86
2016-12-22T00:33:44.608Z,1017.85
2016-12-22T00:34:44.591Z,1017.84
2016-12-22T00:35:44.573Z,1017.89
2016-12-22T00:36:44.549Z,1017.86
2016-12-22T00:37:44.530Z,1017.83
2016-12-22T00:38:44.511Z,1017.87
2016-12-22T00:39:44.486Z,1017.82
2016-12-22T00:40:44.466Z,1017.83
2016-12-22T00:41:44.448Z,1017.86
2016-12-22T00:42:44.426Z,1017.81
2016-12-22T00:43:44.406Z,1017.79
2016-12-22T00:44:44.388Z,1017.84
2016-12-22T00:45:44.367Z,1017.77
2016-12-22T00:46:44.346Z,1017.81
2016-12-22T00:47:44.326Z,1017.79
2016-12-22T00:48:44.308Z,1017.8
2016-12-22T00:49:44.289Z,1017.86
2016-12-22T00:50:44.267Z,1017.82
2016-12-22T00:51:44.246Z,1017.85
2016-12-22T00:52:44.227Z,1017.81
2016-12-22T00:53:44.208Z,1017.81
2016-12-22T00:54:44.187Z,1017.82
2016-12-22T00:55:44.166Z,1017.8
2016-12-22T00:56:44.147Z,1017.84
2016-12-22T00:57:44.128Z,1017.83
2016-12-22T00:58:44.107Z,1017.84
2016-12-22T00:59:44.087Z,1017.8
2016-12-22T01:00:44.071Z,1017.8
2016-12-22T01:01:44.047Z,1017.8
2016-12-22T01:02:44.026Z,1017.78
2016-12-22T01:03:44.008Z,1017.79
2016-12-22T01:04:43.987Z,1017.8
2016-12-22T01:05:43.968Z,1017.76
2016-12-22T01:06:43.948Z,1017.81
2016-12-22T01:07:43.929Z,1017.76
2016-12-22T01:08:43.910Z,1017.76
2016-12-22T01:09:43.889Z,1017.75
2016-12-22T01:10:43.878Z,1017.76
2016-12-22T01:11:43.848Z,1017.77
2016-12-22T01:12:43.827Z,1017.77
2016-12-22T01:13:43.811Z,1017.82
2016-12-22T01:14:43.788Z,1017.79
2016-12-22T01:15:43.768Z,1017.85
2016-12-22T01:16:43.748Z,1017.84
2016-12-22T01:17:43.728Z,1017.85
2016-12-22T01:18:43.710Z,1017.84
2016-12-22T01:19:43.688Z,1017.87
2016-12-22T01:20:43.668Z,1017.9
2016-12-22T01:21:43.650Z,1017.85
2016-12-22T01:22:43.628Z,1017.85
2016-12-22T01:23:43.609Z,1017.9
2016-12-22T01:24:43.588Z,1017.92
2016-12-22T01:25:43.568Z,1017.9
2016-12-22T01:26:43.549Z,1017.89
2016-12-22T01:27:43.529Z,1017.96
2016-12-22T01:28:43.513Z,1017.88
2016-12-22T01:29:43.489Z,1017.94
2016-12-22T01:30:43.472Z,1017.91
2016-12-22T01:31:43.454Z,1017.92
2016-12-22T01:32:43.429Z,1017.96
2016-12-22T01:33:43.412Z,1017.92
2016-12-22T01:34:43.389Z,1017.88
2016-12-22T01:35:43.371Z,1017.9
2016-12-22T01:36:43.350Z,1017.92
2016-12-22T01:37:43.329Z,1017.91
2016-12-22T01:38:43.313Z,1017.9
2016-12-22T01:39:43.292Z,1017.91
2016-12-22T01:40:43.270Z,1017.87
2016-12-22T01:41:43.251Z,1017.88
2016-12-22T01:42:43.230Z,1017.91
2016-12-22T01:43:43.210Z,1017.92
2016-12-22T01:44:43.191Z,1017.91
2016-12-22T01:45:43.170Z,1017.95
2016-12-22T01:46:43.151Z,1017.92
2016-12-22T01:47:43.130Z,1017.95
2016-12-22T01:48:43.114Z,1017.93
2016-12-22T01:49:43.090Z,1017.92
2016-12-22T01:50:43.072Z,1017.92
2016-12-22T01:51:43.051Z,1017.88
2016-12-22T01:52:43.033Z,1017.98
2016-12-22T01:53:43.011Z,1017.94
2016-12-22T01:54:42.992Z,1017.93
2016-12-22T01:55:42.975Z,1017.93
2016-12-22T01:56:42.951Z,1017.99
2016-12-22T01:57:42.932Z,1017.93
2016-12-22T01:58:42.917Z,1017.98
2016-12-22T01:59:42.895Z,1017.95
2016-12-22T02:00:42.871Z,1018.01
2016-12-22T02:01:42.852Z,1017.97
2016-12-22T02:02:42.832Z,1017.96
2016-12-22T02:03:42.811Z,1017.96
2016-12-22T02:04:42.791Z,1017.98
2016-12-22T02:05:42.772Z,1017.98
2016-12-22T02:06:42.752Z,1017.96
2016-12-22T02:07:42.733Z,1017.99
2016-12-22T02:08:42.715Z,1017.99
2016-12-22T02:09:42.696Z,1018.02
2016-12-22T02:10:42.672Z,1017.99
2016-12-22T02:11:42.653Z,1018.01
2016-12-22T02:12:42.633Z,1018.01
2016-12-22T02:13:42.613Z,1017.96
2016-12-22T02:14:42.592Z,1017.97
2016-12-22T02:15:42.573Z,1018
2016-12-22T02:16:42.556Z,1017.97
2016-12-22T02:17:42.533Z,1017.96
2016-12-22T02:18:42.515Z,1017.96
2016-12-22T02:19:42.498Z,1017.92
2016-12-22T02:20:42.474Z,1017.94
2016-12-22T02:21:42.452Z,1017.96
2016-12-22T02:22:42.433Z,1017.97
2016-12-22T02:23:42.415Z,1017.94
2016-12-22T02:24:42.394Z,1017.97
2016-12-22T02:25:42.372Z,1018
2016-12-22T02:26:42.354Z,1017.99
2016-12-22T02:27:42.333Z,1017.98
2016-12-22T02:28:42.516Z,1018
2016-12-22T02:29:42.293Z,1017.98
2016-12-22T02:30:42.273Z,1017.93
2016-12-22T02:31:42.253Z,1017.95
2016-12-22T02:32:42.232Z,1017.98
2016-12-22T02:33:42.216Z,1017.96
2016-12-22T02:34:42.194Z,1017.99
2016-12-22T02:35:42.175Z,1017.96
2016-12-22T02:36:42.153Z,1017.98
2016-12-22T02:37:42.133Z,1017.96
2016-12-22T02:38:42.115Z,1017.97
2016-12-22T02:39:42.094Z,1017.94
2016-12-22T02:40:42.074Z,1017.98
2016-12-22T02:41:42.056Z,1017.97
2016-12-22T02:42:42.035Z,1017.94
2016-12-22T02:43:42.016Z,1017.92
2016-12-22T02:44:41.994Z,1017.94
2016-12-22T02:45:41.974Z,1017.9
2016-12-22T02:46:41.955Z,1017.87
2016-12-22T02:47:41.934Z,1017.91
2016-12-22T02:48:41.914Z,1017.91
2016-12-22T02:49:41.895Z,1017.92
2016-12-22T02:50:41.874Z,1017.86
2016-12-22T02:51:41.853Z,1017.89
2016-12-22T02:52:41.833Z,1017.88
2016-12-22T02:53:41.814Z,1017.88
2016-12-22T02:54:41.793Z,1017.87
2016-12-22T02:55:41.772Z,1017.87
2016-12-22T02:56:41.753Z,1017.87
2016-12-22T02:57:41.734Z,1017.89
2016-12-22T02:58:41.711Z,1017.88
2016-12-22T02:59:41.692Z,1017.86
2016-12-22T03:00:41.671Z,1017.88
2016-12-22T03:01:41.651Z,1017.89
2016-12-22T03:02:41.631Z,1017.86
2016-12-22T03:03:41.612Z,1017.91
2016-12-22T03:04:41.592Z,1017.91
2016-12-22T03:05:41.570Z,1017.87
2016-12-22T03:06:41.551Z,1017.9
2016-12-22T03:07:41.533Z,1017.86
2016-12-22T03:08:41.513Z,1017.87
2016-12-22T03:09:41.491Z,1017.92
2016-12-22T03:10:41.470Z,1017.94
2016-12-22T03:11:41.451Z,1017.91
2016-12-22T03:12:41.430Z,1017.92
2016-12-22T03:13:41.409Z,1017.89
2016-12-22T03:14:41.390Z,1017.88
2016-12-22T03:15:41.369Z,1017.86
2016-12-22T03:16:41.349Z,1017.91
2016-12-22T03:17:41.329Z,1017.9
2016-12-22T03:18:41.310Z,1017.9
2016-12-22T03:19:41.288Z,1017.84
2016-12-22T03:20:41.269Z,1017.87
2016-12-22T03:21:41.248Z,1017.84
2016-12-22T03:22:41.233Z,1017.82
2016-12-22T03:23:41.207Z,1017.85
2016-12-22T03:24:41.186Z,1017.89
2016-12-22T03:25:41.170Z,1017.85
2016-12-22T03:26:41.146Z,1017.86
2016-12-22T03:27:41.125Z,1017.87
2016-12-22T03:28:41.107Z,1017.85
2016-12-22T03:29:41.085Z,1017.84
2016-12-22T03:30:41.070Z,1017.86
2016-12-22T03:31:41.057Z,1017.82
2016-12-22T03:32:41.025Z,1017.82
2016-12-22T03:33:41.008Z,1017.83
2016-12-22T03:34:40.983Z,1017.85
2016-12-22T03:35:40.964Z,1017.8
2016-12-22T03:36:40.944Z,1017.82
2016-12-22T03:37:40.922Z,1017.79
2016-12-22T03:38:40.903Z,1017.76
2016-12-22T03:39:40.881Z,1017.74
2016-12-22T03:40:40.862Z,1017.78
2016-12-22T03:41:40.842Z,1017.74
2016-12-22T03:42:40.821Z,1017.75
2016-12-22T03:43:40.800Z,1017.71
2016-12-22T03:44:40.780Z,1017.71
2016-12-22T03:45:40.759Z,1017.7
2016-12-22T03:46:40.738Z,1017.69
2016-12-22T03:47:40.720Z,1017.69
2016-12-22T03:48:40.698Z,1017.69
2016-12-22T03:49:40.680Z,1017.7
2016-12-22T03:50:40.658Z,1017.7
2016-12-22T03:51:40.638Z,1017.69
2016-12-22T03:52:40.616Z,1017.73
2016-12-22T03:53:40.594Z,1017.71
2016-12-22T03:54:40.574Z,1017.67
2016-12-22T03:55:40.555Z,1017.69
2016-12-22T03:56:40.533Z,1017.66
2016-12-22T03:57:40.512Z,1017.7
2016-12-22T03:58:40.493Z,1017.67
2016-12-22T03:59:40.473Z,1017.7
2016-12-22T04:00:40.452Z,1017.68
2016-12-22T04:01:40.433Z,1017.68
2016-12-22T04:02:40.411Z,1017.64
2016-12-22T04:03:40.390Z,1017.66
2016-12-22T04:04:40.369Z,1017.64
2016-12-22T04:05:40.349Z,1017.64
2016-12-22T04:06:40.329Z,1017.63
2016-12-22T04:07:40.308Z,1017.59
2016-12-22T04:08:40.287Z,1017.62
2016-12-22T04:09:40.267Z,1017.62
2016-12-22T04:10:40.246Z,1017.6
2016-12-22T04:11:40.225Z,1017.6
2016-12-22T04:12:40.205Z,1017.61
2016-12-22T04:13:40.186Z,1017.61
2016-12-22T04:14:40.165Z,1017.64
2016-12-22T04:15:40.146Z,1017.64
2016-12-22T04:16:40.126Z,1017.59
2016-12-22T04:17:40.160Z,1017.61
2016-12-22T04:18:40.083Z,1017.58
2016-12-22T04:19:40.062Z,1017.59
2016-12-22T04:20:40.082Z,1017.57
2016-12-22T04:21:40.023Z,1017.63
2016-12-22T04:22:40.002Z,1017.59
2016-12-22T04:23:39.986Z,1017.61
2016-12-22T04:24:39.962Z,1017.61
2016-12-22T04:25:39.941Z,1017.6
2016-12-22T04:26:39.921Z,1017.61
2016-12-22T04:27:39.900Z,1017.6
2016-12-22T04:28:40.087Z,1017.6
2016-12-22T04:29:39.860Z,1017.62
2016-12-22T04:30:39.838Z,1017.63
2016-12-22T04:31:39.821Z,1017.61
2016-12-22T04:32:39.798Z,1017.64
2016-12-22T04:33:39.786Z,1017.64
2016-12-22T04:34:39.757Z,1017.67
2016-12-22T04:35:39.737Z,1017.64
2016-12-22T04:36:39.721Z,1017.59
2016-12-22T04:37:39.700Z,1017.62
2016-12-22T04:38:39.675Z,1017.59
2016-12-22T04:39:39.655Z,1017.58
2016-12-22T04:40:39.634Z,1017.64
2016-12-22T04:41:39.615Z,1017.58
2016-12-22T04:42:39.597Z,1017.59
2016-12-22T04:43:39.576Z,1017.58
2016-12-22T04:44:39.553Z,1017.53
2016-12-22T04:45:39.534Z,1017.58
2016-12-22T04:46:39.511Z,1017.57
2016-12-22T04:47:39.490Z,1017.58
2016-12-22T04:48:39.472Z,1017.57
2016-12-22T04:49:39.455Z,1017.56
2016-12-22T04:50:39.430Z,1017.57
2016-12-22T04:51:39.409Z,1017.59
2016-12-22T04:52:39.390Z,1017.55
2016-12-22T04:53:39.374Z,1017.52
2016-12-22T04:54:39.348Z,1017.55
2016-12-22T04:55:39.330Z,1017.58
2016-12-22T04:56:39.307Z,1017.57
2016-12-22T04:57:39.287Z,1017.6
2016-12-22T04:58:39.266Z,1017.54
2016-12-22T04:59:39.246Z,1017.55
2016-12-22T05:00:39.225Z,1017.59
2016-12-22T05:01:39.205Z,1017.55
2016-12-22T05:02:39.184Z,1017.59
2016-12-22T05:03:39.165Z,1017.57
2016-12-22T05:04:39.144Z,1017.57
2016-12-22T05:05:39.125Z,1017.59
2016-12-22T05:06:39.105Z,1017.56
2016-12-22T05:07:39.091Z,1017.58
2016-12-22T05:08:39.064Z,1017.6
2016-12-22T05:09:39.043Z,1017.57
2016-12-22T05:10:39.025Z,1017.6
2016-12-22T05:11:39.001Z,1017.58
2016-12-22T05:12:38.980Z,1017.58
2016-12-22T05:13:38.961Z,1017.6
2016-12-22T05:14:38.939Z,1017.59
2016-12-22T05:15:38.918Z,1017.61
2016-12-22T05:16:38.901Z,1017.59
2016-12-22T05:17:38.878Z,1017.57
2016-12-22T05:18:38.859Z,1017.56
2016-12-22T05:19:38.840Z,1017.6
2016-12-22T05:20:38.817Z,1017.61
2016-12-22T05:21:38.797Z,1017.63
2016-12-22T05:22:38.777Z,1017.62
2016-12-22T05:23:38.757Z,1017.6
2016-12-22T05:24:38.735Z,1017.6
2016-12-22T05:25:38.715Z,1017.59
2016-12-22T05:26:38.696Z,1017.61
2016-12-22T05:27:38.680Z,1017.62
2016-12-22T05:28:38.653Z,1017.6
2016-12-22T05:29:38.633Z,1017.62
2016-12-22T05:30:38.616Z,1017.63
2016-12-22T05:31:38.592Z,1017.64
2016-12-22T05:32:38.574Z,1017.67
2016-12-22T05:33:38.553Z,1017.69
2016-12-22T05:34:38.535Z,1017.65
2016-12-22T05:35:38.512Z,1017.65
2016-12-22T05:36:38.492Z,1017.7
2016-12-22T05:37:38.471Z,1017.67
2016-12-22T05:38:38.451Z,1017.67
2016-12-22T05:39:38.431Z,1017.65
2016-12-22T05:40:38.410Z,1017.66
2016-12-22T05:41:38.389Z,1017.66
2016-12-22T05:42:38.368Z,1017.69
2016-12-22T05:43:38.348Z,1017.71
2016-12-22T05:44:38.328Z,1017.67
2016-12-22T05:45:38.310Z,1017.68
2016-12-22T05:46:38.287Z,1017.64
2016-12-22T05:47:38.274Z,1017.71
2016-12-22T05:48:38.251Z,1017.66
2016-12-22T05:49:38.229Z,1017.63
2016-12-22T05:50:38.208Z,1017.67
2016-12-22T05:51:38.187Z,1017.68
2016-12-22T05:52:38.169Z,1017.65
2016-12-22T05:53:38.147Z,1017.69
2016-12-22T05:54:38.126Z,1017.68
2016-12-22T05:55:38.107Z,1017.7
2016-12-22T05:56:38.090Z,1017.69
2016-12-22T05:57:38.065Z,1017.69
2016-12-22T05:58:38.045Z,1017.71
2016-12-22T05:59:38.026Z,1017.73
2016-12-22T06:00:38.005Z,1017.74
2016-12-22T06:01:37.985Z,1017.75
2016-12-22T06:02:38.037Z,1017.74
2016-12-22T06:03:37.948Z,1017.71
2016-12-22T06:04:37.925Z,1017.75
2016-12-22T06:05:37.904Z,1017.71
2016-12-22T06:06:37.890Z,1017.73
2016-12-22T06:07:37.868Z,1017.72
2016-12-22T06:08:37.845Z,1017.72
2016-12-22T06:09:37.826Z,1017.74
2016-12-22T06:10:37.805Z,1017.75
2016-12-22T06:11:37.783Z,1017.81
2016-12-22T06:12:37.767Z,1017.75
2016-12-22T06:13:37.743Z,1017.75
2016-12-22T06:14:37.731Z,1017.73
2016-12-22T06:15:37.703Z,1017.78
2016-12-22T06:16:37.697Z,1017.83
2016-12-22T06:17:37.662Z,1017.85
2016-12-22T06:18:37.643Z,1017.84
2016-12-22T06:19:37.622Z,1017.9
2016-12-22T06:20:37.602Z,1017.87
2016-12-22T06:21:37.583Z,1017.85
2016-12-22T06:22:37.561Z,1017.89
2016-12-22T06:23:37.541Z,1017.86
2016-12-22T06:24:37.521Z,1017.85
2016-12-22T06:25:37.501Z,1017.84
2016-12-22T06:26:37.480Z,1017.86
2016-12-22T06:27:37.460Z,1017.9
2016-12-22T06:28:37.642Z,1017.89
2016-12-22T06:29:37.421Z,1017.9
2016-12-22T06:30:37.400Z,1017.91
2016-12-22T06:31:37.381Z,1017.94
2016-12-22T06:32:37.362Z,1017.96
2016-12-22T06:33:37.342Z,1017.94
2016-12-22T06:34:37.322Z,1017.97
2016-12-22T06:35:37.300Z,1017.98
2016-12-22T06:36:37.280Z,1017.95
2016-12-22T06:37:37.261Z,1017.95
2016-12-22T06:38:37.240Z,1017.98
2016-12-22T06:39:37.221Z,1018.01
2016-12-22T06:40:37.200Z,1018.04
2016-12-22T06:41:37.180Z,1018.04
2016-12-22T06:42:37.161Z,1018.05
2016-12-22T06:43:37.140Z,1018.02
2016-12-22T06:44:37.119Z,1018.08
2016-12-22T06:45:37.100Z,1018.04
2016-12-22T06:46:37.081Z,1018.04
2016-12-22T06:47:37.063Z,1018.06
2016-12-22T06:48:37.039Z,1018.12
2016-12-22T06:49:37.020Z,1018.08
2016-12-22T06:50:37.003Z,1018.09
2016-12-22T06:51:36.980Z,1018.11
2016-12-22T06:52:36.959Z,1018.12
2016-12-22T06:53:36.940Z,1018.12
2016-12-22T06:54:36.921Z,1018.14
2016-12-22T06:55:36.901Z,1018.17
2016-12-22T06:56:36.880Z,1018.15
2016-12-22T06:57:36.859Z,1018.2
2016-12-22T06:58:36.840Z,1018.18
2016-12-22T06:59:36.819Z,1018.2
2016-12-22T07:00:36.800Z,1018.19
2016-12-22T07:01:36.807Z,1018.19
2016-12-22T07:02:36.761Z,1018.22
2016-12-22T07:03:36.739Z,1018.21
2016-12-22T07:04:36.719Z,1018.24
2016-12-22T07:05:36.699Z,1018.23
2016-12-22T07:06:36.679Z,1018.25
2016-12-22T07:07:36.658Z,1018.25
2016-12-22T07:08:36.641Z,1018.23
2016-12-22T07:09:36.622Z,1018.22
2016-12-22T07:10:36.609Z,1018.23
2016-12-22T07:11:36.581Z,1018.23
2016-12-22T07:12:36.561Z,1018.28
2016-12-22T07:13:36.541Z,1018.31
2016-12-22T07:14:36.520Z,1018.3
2016-12-22T07:15:36.500Z,1018.32
2016-12-22T07:16:36.480Z,1018.32
2016-12-22T07:17:36.459Z,1018.31
2016-12-22T07:18:36.440Z,1018.36
2016-12-22T07:19:36.420Z,1018.35
2016-12-22T07:20:36.400Z,1018.37
2016-12-22T07:21:36.379Z,1018.35
2016-12-22T07:22:36.359Z,1018.38
2016-12-22T07:23:36.340Z,1018.33
2016-12-22T07:24:36.319Z,1018.37
2016-12-22T07:25:36.301Z,1018.39
2016-12-22T07:26:36.280Z,1018.38
2016-12-22T07:27:36.261Z,1018.4
2016-12-22T07:28:36.242Z,1018.39
2016-12-22T07:29:36.221Z,1018.42
2016-12-22T07:30:36.201Z,1018.44
2016-12-22T07:31:36.187Z,1018.43
2016-12-22T07:32:36.163Z,1018.44
2016-12-22T07:33:36.142Z,1018.43
2016-12-22T07:34:36.121Z,1018.45
2016-12-22T07:35:36.100Z,1018.43
2016-12-22T07:36:36.083Z,1018.46
2016-12-22T07:37:36.063Z,1018.51
2016-12-22T07:38:36.044Z,1018.44
2016-12-22T07:39:36.021Z,1018.48
2016-12-22T07:40:36.004Z,1018.46
2016-12-22T07:41:35.982Z,1018.4
2016-12-22T07:42:35.962Z,1018.44
2016-12-22T07:43:35.942Z,1018.41
2016-12-22T07:44:35.921Z,1018.44
2016-12-22T07:45:35.902Z,1018.45
2016-12-22T07:46:35.883Z,1018.44
2016-12-22T07:47:35.862Z,1018.45
2016-12-22T07:48:35.843Z,1018.47
2016-12-22T07:49:35.821Z,1018.49
2016-12-22T07:50:35.802Z,1018.46
2016-12-22T07:51:35.782Z,1018.47
2016-12-22T07:52:35.763Z,1018.41
2016-12-22T07:53:35.742Z,1018.45
2016-12-22T07:54:35.723Z,1018.48
2016-12-22T07:55:35.702Z,1018.49
2016-12-22T07:56:35.684Z,1018.48
2016-12-22T07:57:35.661Z,1018.51
2016-12-22T07:58:35.645Z,1018.56
2016-12-22T07:59:35.623Z,1018.53
2016-12-22T08:00:35.603Z,1018.57
2016-12-22T08:01:35.582Z,1018.53
2016-12-22T08:02:35.562Z,1018.54
2016-12-22T08:03:35.554Z,1018.53
2016-12-22T08:04:35.530Z,1018.5
2016-12-22T08:05:35.505Z,1018.55
2016-12-22T08:06:35.484Z,1018.59
2016-12-22T08:07:35.464Z,1018.59
2016-12-22T08:08:35.445Z,1018.63
2016-12-22T08:09:35.423Z,1018.59
2016-12-22T08:10:35.407Z,1018.66
2016-12-22T08:11:35.383Z,1018.65
2016-12-22T08:12:35.362Z,1018.7
2016-12-22T08:13:35.343Z,1018.71
2016-12-22T08:14:35.325Z,1018.69
2016-12-22T08:15:35.305Z,1018.69
2016-12-22T08:16:35.290Z,1018.71
2016-12-22T08:17:35.270Z,1018.74
2016-12-22T08:18:35.245Z,1018.71
2016-12-22T08:19:35.230Z,1018.71
2016-12-22T08:20:35.205Z,1018.73
2016-12-22T08:21:35.185Z,1018.73
2016-12-22T08:22:35.167Z,1018.77
2016-12-22T08:23:35.145Z,1018.77
2016-12-22T08:24:35.126Z,1018.78
2016-12-22T08:25:35.105Z,1018.76
2016-12-22T08:26:35.085Z,1018.79
2016-12-22T08:27:35.064Z,1018.81
2016-12-22T08:28:35.045Z,1018.88
2016-12-22T08:29:35.026Z,1018.83
2016-12-22T08:30:35.005Z,1018.87
2016-12-22T08:31:34.986Z,1018.92
2016-12-22T08:32:34.965Z,1018.9
2016-12-22T08:33:34.947Z,1018.89
2016-12-22T08:34:34.927Z,1018.91
2016-12-22T08:35:34.907Z,1018.95
2016-12-22T08:36:34.887Z,1018.92
2016-12-22T08:37:34.866Z,1018.9
2016-12-22T08:38:34.846Z,1018.91
2016-12-22T08:39:34.826Z,1018.92
2016-12-22T08:40:34.807Z,1018.91
2016-12-22T08:41:34.786Z,1018.9
2016-12-22T08:42:34.769Z,1018.89
2016-12-22T08:43:34.749Z,1018.87
2016-12-22T08:44:34.729Z,1018.82
2016-12-22T08:45:34.708Z,1018.82
2016-12-22T08:46:34.688Z,1018.83
2016-12-22T08:47:34.669Z,1018.79
2016-12-22T08:48:34.655Z,1018.8
2016-12-22T08:49:34.631Z,1018.76
2016-12-22T08:50:34.609Z,1018.75
2016-12-22T08:51:34.590Z,1018.74
2016-12-22T08:52:34.568Z,1018.72
2016-12-22T08:53:34.550Z,1018.72
2016-12-22T08:54:34.530Z,1018.7
2016-12-22T08:55:34.513Z,1018.68
2016-12-22T08:56:34.492Z,1018.7
2016-12-22T08:57:34.470Z,1018.72
2016-12-22T08:58:34.452Z,1018.69
2016-12-22T08:59:34.433Z,1018.67
2016-12-22T09:00:34.414Z,1018.63
2016-12-22T09:01:34.394Z,1018.58
2016-12-22T09:02:34.467Z,1018.53
2016-12-22T09:03:34.359Z,1018.53
2016-12-22T09:04:34.340Z,1018.57
2016-12-22T09:05:34.316Z,1018.57
2016-12-22T09:06:34.297Z,1018.59
2016-12-22T09:07:34.328Z,1018.57
2016-12-22T09:08:34.258Z,1018.61
2016-12-22T09:09:34.238Z,1018.58
2016-12-22T09:10:34.217Z,1018.57
2016-12-22T09:11:34.201Z,1018.57
2016-12-22T09:12:34.229Z,1018.54
2016-12-22T09:13:34.164Z,1018.5
2016-12-22T09:14:34.139Z,1018.52
2016-12-22T09:15:34.120Z,1018.49
2016-12-22T09:16:34.102Z,1018.57
2016-12-22T09:17:34.084Z,1018.55
2016-12-22T09:22:20.085Z,1018.8
2016-12-22T09:23:20.067Z,1018.83
2016-12-22T09:24:20.047Z,1018.86
2016-12-22T09:25:20.027Z,1018.86
2016-12-22T09:26:20.012Z,1018.84
2016-12-22T09:27:19.989Z,1018.87
2016-12-22T09:28:19.972Z,1018.83
2016-12-22T09:29:19.950Z,1018.81
2016-12-22T09:30:19.986Z,1018.87
2016-12-22T09:31:19.912Z,1018.82
2016-12-22T09:32:19.893Z,1018.83
2016-12-22T09:33:19.874Z,1018.85
2016-12-22T09:34:19.855Z,1018.82
2016-12-22T09:35:19.834Z,1018.83
2016-12-22T09:36:19.815Z,1018.85
2016-12-22T09:37:19.795Z,1018.82
2016-12-22T09:38:19.776Z,1018.86
2016-12-22T09:39:19.761Z,1018.84
2016-12-22T09:40:19.738Z,1018.86
2016-12-22T09:41:19.717Z,1018.89
2016-12-22T09:42:19.700Z,1018.93
2016-12-22T09:43:19.678Z,1018.99
2016-12-22T09:44:19.658Z,1019.01
2016-12-22T09:45:19.639Z,1019.07
2016-12-22T09:46:19.619Z,1019.12
2016-12-22T09:47:19.600Z,1019.12
2016-12-22T09:48:19.582Z,1019.13
2016-12-22T09:49:19.562Z,1019.15
2016-12-22T09:50:19.544Z,1019.18
2016-12-22T09:51:19.523Z,1019.21
2016-12-22T09:52:19.504Z,1019.28
2016-12-22T09:53:19.487Z,1019.29
2016-12-22T09:54:19.463Z,1019.3
2016-12-22T09:55:19.444Z,1019.29
2016-12-22T09:56:19.426Z,1019.25
2016-12-22T09:57:19.406Z,1019.2
2016-12-22T09:58:19.387Z,1019.22
2016-12-22T09:59:19.366Z,1019.22
2016-12-22T10:00:19.351Z,1019.21
2016-12-22T10:01:19.328Z,1019.19
2016-12-22T10:02:19.310Z,1019.16
2016-12-22T10:03:19.295Z,1019.13
2016-12-22T10:04:19.284Z,1019.1
2016-12-22T10:05:19.252Z,1019.12
2016-12-22T10:06:19.234Z,1019.13
2016-12-22T10:07:19.215Z,1019.1
2016-12-22T10:08:19.196Z,1019.16
2016-12-22T10:09:19.177Z,1019.18
2016-12-22T10:10:19.156Z,1019.21
2016-12-22T10:11:19.138Z,1019.27
2016-12-22T10:12:19.121Z,1019.3
2016-12-22T10:13:19.100Z,1019.34
2016-12-22T10:14:19.084Z,1019.35
2016-12-22T10:15:19.061Z,1019.37
2016-12-22T10:16:19.041Z,1019.38
2016-12-22T10:17:19.021Z,1019.42
2016-12-22T10:18:19.002Z,1019.41
2016-12-22T10:19:19.002Z,1019.45
2016-12-22T10:20:18.976Z,1019.45
2016-12-22T10:21:18.944Z,1019.47
2016-12-22T10:22:18.927Z,1019.46
2016-12-22T10:23:18.909Z,1019.49
2016-12-22T10:24:18.888Z,1019.46
2016-12-22T10:25:18.874Z,1019.51
2016-12-22T10:26:18.849Z,1019.55
2016-12-22T10:27:18.833Z,1019.58
2016-12-22T10:28:18.814Z,1019.6
2016-12-22T10:29:18.995Z,1019.61
2016-12-22T10:30:18.773Z,1019.58
2016-12-22T10:31:18.754Z,1019.58
2016-12-22T10:32:18.740Z,1019.57
2016-12-22T10:33:18.717Z,1019.56
2016-12-22T10:34:18.699Z,1019.53
2016-12-22T10:35:18.678Z,1019.57
2016-12-22T10:36:18.661Z,1019.6
2016-12-22T10:37:18.642Z,1019.64
2016-12-22T10:38:18.621Z,1019.63
2016-12-22T10:39:18.605Z,1019.63
2016-12-22T10:40:18.584Z,1019.65
2016-12-22T10:41:18.568Z,1019.65
2016-12-22T10:42:18.546Z,1019.56
2016-12-22T10:43:18.530Z,1019.58
2016-12-22T10:44:18.532Z,1019.53
2016-12-22T10:45:18.491Z,1019.51
2016-12-22T10:46:18.474Z,1019.53
2016-12-22T10:47:18.452Z,1019.54
2016-12-22T10:48:18.434Z,1019.51
2016-12-22T10:49:18.414Z,1019.47
2016-12-22T10:50:18.396Z,1019.52
2016-12-22T10:51:18.378Z,1019.48
2016-12-22T10:52:18.359Z,1019.54
2016-12-22T10:53:18.342Z,1019.52
2016-12-22T10:54:18.322Z,1019.51
2016-12-22T10:55:18.304Z,1019.45
2016-12-22T10:56:18.286Z,1019.52
2016-12-22T10:57:18.266Z,1019.49
2016-12-22T10:58:18.247Z,1019.49
2016-12-22T10:59:18.229Z,1019.48
2016-12-22T11:00:18.209Z,1019.49
2016-12-22T11:01:18.191Z,1019.47
2016-12-22T11:02:18.174Z,1019.5
2016-12-22T11:03:18.155Z,1019.51
2016-12-22T11:04:18.135Z,1019.48
2016-12-22T11:05:18.116Z,1019.51
2016-12-22T11:06:18.098Z,1019.54
2016-12-22T11:07:18.078Z,1019.51
2016-12-22T11:08:18.060Z,1019.5
2016-12-22T11:09:18.043Z,1019.5
2016-12-22T11:10:18.024Z,1019.5
2016-12-22T11:11:18.003Z,1019.51
2016-12-22T11:12:17.986Z,1019.53
2016-12-22T11:13:17.969Z,1019.49
2016-12-22T11:14:17.947Z,1019.49
2016-12-22T11:15:17.929Z,1019.44
2016-12-22T11:16:17.909Z,1019.36
2016-12-22T11:17:17.891Z,1019.39
2016-12-22T11:18:17.872Z,1019.41
2016-12-22T11:19:17.853Z,1019.42
2016-12-22T11:20:17.834Z,1019.39
2016-12-22T11:21:17.816Z,1019.38
2016-12-22T11:22:17.799Z,1019.35
2016-12-22T11:23:17.781Z,1019.35
2016-12-22T11:24:17.759Z,1019.38
2016-12-22T11:25:17.742Z,1019.36
2016-12-22T11:26:17.721Z,1019.33
2016-12-22T11:27:17.703Z,1019.34
2016-12-22T11:28:17.686Z,1019.35
2016-12-22T11:29:17.670Z,1019.34
2016-12-22T11:30:17.648Z,1019.37
2016-12-22T11:31:17.629Z,1019.33
2016-12-22T11:32:17.610Z,1019.38
2016-12-22T11:33:17.589Z,1019.42
2016-12-22T11:34:17.573Z,1019.42
2016-12-22T11:35:17.554Z,1019.41
2016-12-22T11:36:17.536Z,1019.42
2016-12-22T11:37:17.516Z,1019.41
2016-12-22T11:38:17.546Z,1019.42
2016-12-22T11:39:17.478Z,1019.41
2016-12-22T11:40:17.459Z,1019.41
2016-12-22T11:41:17.441Z,1019.4
2016-12-22T11:42:17.421Z,1019.43
2016-12-22T11:43:17.403Z,1019.39
2016-12-22T11:44:17.388Z,1019.34
2016-12-22T11:45:17.367Z,1019.38
2016-12-22T11:46:17.349Z,1019.34
2016-12-22T11:47:17.327Z,1019.35
2016-12-22T11:48:17.310Z,1019.37
2016-12-22T11:49:17.373Z,1019.42
2016-12-22T11:50:17.271Z,1019.35
2016-12-22T11:51:17.251Z,1019.4
2016-12-22T11:52:17.233Z,1019.42
2016-12-22T11:53:17.215Z,1019.41
2016-12-22T11:54:17.198Z,1019.46
2016-12-22T11:55:17.178Z,1019.46
2016-12-22T11:56:17.160Z,1019.48
2016-12-22T11:57:17.139Z,1019.45
2016-12-22T11:58:17.120Z,1019.5
2016-12-22T11:59:17.102Z,1019.55
2016-12-22T12:00:17.083Z,1019.54
2016-12-22T12:01:17.065Z,1019.59
2016-12-22T12:02:17.044Z,1019.6
2016-12-22T12:03:17.026Z,1019.56
2016-12-22T12:04:17.007Z,1019.58
2016-12-22T12:05:16.990Z,1019.58
2016-12-22T12:06:16.971Z,1019.63
2016-12-22T12:07:16.952Z,1019.58
2016-12-22T12:08:16.933Z,1019.55
2016-12-22T12:09:16.912Z,1019.55
2016-12-22T12:10:16.894Z,1019.52
2016-12-22T12:11:16.876Z,1019.54
2016-12-22T12:12:16.858Z,1019.49